createdAt,value
2018-07-05T00:01:12.046Z,74.50
2018-07-05T00:03:57.478Z,74.00
2018-07-05T00:06:43.084Z,74.20
2018-07-05T00:09:28.389Z,73.90
2018-07-05T00:12:13.753Z,73.60
2018-07-05T00:14:59.011Z,73.60
2018-07-05T00:17:44.405Z,73.80
2018-07-05T00:20:29.738Z,74.30
2018-07-05T00:23:15.031Z,75.20
2018-07-05T00:26:00.315Z,76.10
2018-07-05T00:28:45.531Z,76.10
2018-07-05T00:31:30.686Z,76.40
2018-07-05T00:34:15.962Z,75.80
2018-07-05T00:37:01.265Z,76.70
2018-07-05T00:39:46.479Z,77.50
2018-07-05T00:42:32.613Z,77.10
2018-07-05T00:45:17.852Z,77.90
2018-07-05T00:50:42.780Z,77.30
2018-07-05T00:56:07.925Z,76.50
2018-07-05T00:58:53.025Z,76.50
2018-07-05T01:01:38.317Z,76.90
2018-07-05T01:04:23.621Z,77.00
2018-07-05T01:09:48.266Z,77.40
2018-07-05T01:12:33.348Z,77.70
2018-07-05T01:15:18.670Z,77.00
2018-07-05T01:20:43.564Z,76.70
2018-07-05T01:26:08.294Z,78.20
2018-07-05T01:31:33.758Z,79.70
2018-07-05T01:34:19.096Z,80.10
2018-07-05T01:37:04.307Z,79.80
2018-07-05T01:39:49.721Z,79.20
2018-07-05T01:42:35.065Z,79.20
2018-07-05T01:45:20.366Z,79.30
2018-07-05T01:48:05.718Z,79.70
2018-07-05T01:50:51.032Z,79.50
2018-07-05T01:53:36.544Z,79.50
2018-07-05T01:56:21.848Z,79.10
2018-07-05T01:59:07.118Z,79.50
2018-07-05T02:01:52.628Z,78.30
2018-07-05T02:04:37.927Z,78.30
2018-07-05T02:10:03.099Z,78.60
2018-07-05T02:12:48.325Z,78.40
2018-07-05T02:15:33.522Z,77.50
2018-07-05T02:18:18.869Z,77.70
2018-07-05T02:23:43.933Z,77.70
2018-07-05T02:26:29.100Z,77.70
2018-07-05T02:29:14.319Z,77.80
2018-07-05T02:34:39.341Z,78.20
2018-07-05T02:40:10.049Z,78.80
2018-07-05T02:42:55.153Z,79.30
2018-07-05T02:45:40.517Z,79.30
2018-07-05T02:48:25.775Z,79.60
2018-07-05T02:51:11.180Z,79.00
2018-07-05T02:56:35.993Z,79.60
2018-07-05T02:59:21.318Z,79.30
2018-07-05T03:02:06.959Z,79.80
2018-07-05T03:04:52.224Z,78.30
2018-07-05T03:10:17.040Z,78.40
2018-07-05T03:13:02.213Z,78.40
2018-07-05T03:18:27.078Z,79.00
2018-07-05T03:21:12.460Z,79.70
2018-07-05T03:23:57.878Z,80.30
2018-07-05T03:29:22.729Z,80.40
2018-07-05T03:32:07.932Z,79.10
2018-07-05T03:34:53.123Z,78.20
2018-07-05T03:37:38.645Z,78.30
2018-07-05T03:40:24.196Z,78.10
2018-07-05T03:43:09.595Z,78.20
2018-07-05T03:45:54.834Z,78.80
2018-07-05T03:48:40.230Z,78.40
2018-07-05T03:56:44.592Z,76.90
2018-07-05T03:59:29.737Z,76.90
2018-07-05T04:02:16.241Z,76.30
2018-07-05T04:07:41.016Z,76.50
2018-07-05T04:10:26.436Z,76.20
2018-07-05T04:13:11.650Z,77.30
2018-07-05T04:15:57.036Z,80.60
2018-07-05T04:18:42.193Z,82.20
2018-07-05T04:21:27.436Z,82.20
2018-07-05T04:24:12.669Z,81.10
2018-07-05T04:26:58.220Z,82.40
2018-07-05T04:29:43.297Z,84.10
2018-07-05T04:32:28.541Z,84.40
2018-07-05T04:35:13.898Z,85.20
2018-07-05T04:37:59.273Z,85.70
2018-07-05T04:40:44.507Z,86.30
2018-07-05T04:43:29.805Z,88.80
2018-07-05T04:48:54.525Z,90.80
2018-07-05T04:51:39.928Z,90.40
2018-07-05T04:54:25.374Z,88.40
2018-07-05T04:57:11.578Z,87.80
2018-07-05T04:59:56.877Z,88.30
2018-07-05T05:02:42.089Z,90.00
2018-07-05T05:05:27.265Z,90.70
2018-07-05T05:08:12.570Z,91.70
2018-07-05T05:13:37.168Z,92.10
2018-07-05T05:16:22.524Z,91.70
2018-07-05T05:19:08.038Z,91.60
2018-07-05T05:21:53.300Z,92.10
2018-07-05T05:24:38.793Z,91.30
2018-07-05T05:27:24.068Z,90.80
2018-07-05T05:30:09.434Z,90.20
2018-07-05T05:32:54.596Z,88.90
2018-07-05T05:38:19.579Z,87.00
2018-07-05T05:41:04.864Z,86.80
2018-07-05T05:43:50.222Z,86.90
2018-07-05T05:46:35.455Z,86.00
2018-07-05T05:49:20.990Z,85.30
2018-07-05T05:52:06.398Z,83.60
2018-07-05T05:54:51.699Z,84.00
2018-07-05T05:57:37.111Z,83.00
2018-07-05T06:00:22.548Z,83.00
2018-07-05T06:03:07.736Z,81.20
2018-07-05T06:05:53.110Z,82.20
2018-07-05T06:08:38.527Z,81.80
2018-07-05T06:11:23.810Z,80.60
2018-07-05T06:16:49.955Z,78.80
2018-07-05T06:26:46.621Z,81.10
2018-07-05T06:29:31.974Z,82.50
2018-07-05T06:32:17.262Z,83.20
2018-07-05T06:35:02.560Z,81.60
2018-07-05T06:40:27.304Z,81.10
2018-07-05T06:43:12.607Z,79.60
2018-07-05T06:45:57.972Z,80.30
2018-07-05T06:48:43.131Z,80.90
2018-07-05T06:51:28.450Z,79.50
2018-07-05T06:54:13.606Z,78.20
2018-07-05T06:56:58.704Z,77.90
2018-07-05T06:59:43.924Z,76.90
2018-07-05T07:02:29.220Z,76.70
2018-07-05T07:05:14.404Z,74.90
2018-07-05T07:07:59.819Z,74.90
2018-07-05T07:10:45.028Z,73.70
2018-07-05T07:13:30.460Z,72.20
2018-07-05T07:16:15.682Z,73.40
2018-07-05T07:19:01.011Z,71.00
2018-07-05T07:24:25.789Z,65.70
2018-07-05T07:27:11.837Z,64.70
2018-07-05T07:32:36.988Z,62.60
2018-07-05T07:35:22.486Z,63.60
2018-07-05T07:38:07.939Z,62.40
2018-07-05T07:40:53.420Z,62.90
2018-07-05T07:43:20.043Z,63.90
2018-07-05T07:45:46.707Z,63.10
2018-07-05T07:53:07.500Z,65.10
2018-07-05T07:55:34.130Z,65.10
2018-07-05T07:58:00.696Z,65.50
2018-07-05T08:00:27.384Z,65.00
2018-07-05T08:02:54.041Z,65.10
2018-07-05T08:05:20.694Z,65.10
2018-07-05T08:07:47.286Z,65.00
2018-07-05T08:10:13.930Z,65.10
2018-07-05T08:12:40.589Z,64.30
2018-07-05T08:15:07.232Z,63.50
2018-07-05T08:17:33.838Z,64.20
2018-07-05T08:20:00.487Z,63.40
2018-07-05T08:22:27.107Z,63.90
2018-07-05T08:27:20.845Z,63.50
2018-07-05T08:29:47.421Z,62.60
2018-07-05T08:32:14.003Z,63.40
2018-07-05T08:34:40.641Z,62.80
2018-07-05T08:37:07.273Z,62.50
2018-07-05T08:39:33.881Z,62.30
2018-07-05T08:42:00.528Z,60.70
2018-07-05T08:44:27.162Z,61.40
2018-07-05T08:46:53.725Z,60.40
2018-07-05T08:49:20.325Z,60.40
2018-07-05T08:51:47.044Z,59.60
2018-07-05T08:54:13.840Z,59.90
2018-07-05T08:56:40.469Z,59.40
2018-07-05T08:59:07.078Z,58.50
2018-07-05T09:01:33.720Z,60.50
2018-07-05T09:04:00.431Z,60.60
2018-07-05T09:06:27.046Z,61.20
2018-07-05T09:11:20.782Z,61.50
2018-07-05T09:13:47.445Z,61.10
2018-07-05T09:16:14.122Z,60.70
2018-07-05T09:18:40.726Z,61.50
2018-07-05T09:21:07.313Z,61.80
2018-07-05T09:23:33.974Z,61.20
2018-07-05T09:26:00.525Z,60.30
2018-07-05T09:28:27.211Z,61.10
2018-07-05T09:30:53.821Z,60.60
2018-07-05T09:33:20.414Z,60.60
2018-07-05T09:35:47.019Z,61.90
2018-07-05T09:38:13.626Z,61.90
2018-07-05T09:40:40.204Z,63.00
2018-07-05T09:43:06.809Z,63.10
2018-07-05T09:48:00.528Z,62.70
2018-07-05T09:50:27.146Z,62.20
2018-07-05T09:52:53.732Z,61.40
2018-07-05T09:55:20.337Z,61.60
2018-07-05T09:57:46.940Z,62.70
2018-07-05T10:00:13.549Z,62.50
2018-07-05T10:02:40.511Z,62.80
2018-07-05T10:05:07.150Z,62.70
2018-07-05T10:10:01.447Z,63.70
2018-07-05T10:14:55.182Z,61.40
2018-07-05T10:17:21.814Z,61.80
2018-07-05T10:19:48.812Z,60.90
2018-07-05T10:22:16.430Z,61.80
2018-07-05T10:24:43.065Z,62.60
2018-07-05T10:27:09.674Z,61.90
2018-07-05T10:29:54.877Z,63.20
2018-07-05T10:32:40.145Z,63.40
2018-07-05T10:35:07.325Z,66.00
2018-07-05T10:37:33.962Z,65.20
2018-07-05T10:40:19.212Z,65.60
2018-07-05T10:43:04.462Z,66.80
2018-07-05T10:45:49.636Z,71.50
2018-07-05T10:48:35.036Z,72.50
2018-07-05T10:51:21.410Z,75.80
2018-07-05T10:54:06.566Z,76.00
2018-07-05T10:56:52.761Z,78.50
2018-07-05T10:59:37.967Z,81.40
2018-07-05T11:02:23.036Z,80.00
2018-07-05T11:05:08.258Z,81.20
2018-07-05T11:07:53.554Z,81.10
2018-07-05T11:10:38.977Z,80.70
2018-07-05T11:16:03.716Z,82.70
2018-07-05T11:18:49.189Z,88.30
2018-07-05T11:21:34.232Z,86.30
2018-07-05T11:24:19.275Z,88.50
2018-07-05T11:27:04.540Z,85.00
2018-07-05T11:29:49.812Z,86.10
2018-07-05T11:32:35.161Z,86.10
2018-07-05T11:35:20.525Z,90.00
2018-07-05T11:40:45.229Z,88.40
2018-07-05T11:46:09.827Z,89.70
2018-07-05T11:48:55.059Z,86.20
2018-07-05T11:51:40.381Z,87.60
2018-07-05T11:54:25.870Z,87.20
2018-07-05T11:57:11.650Z,84.90
2018-07-05T11:59:56.825Z,85.00
2018-07-05T12:02:41.975Z,88.30
2018-07-05T12:05:27.065Z,88.30
2018-07-05T12:08:12.465Z,85.80
2018-07-05T12:13:36.976Z,87.30
2018-07-05T12:16:22.115Z,90.00
2018-07-05T12:24:26.212Z,87.40
2018-07-05T12:27:11.570Z,85.30
2018-07-05T12:29:56.845Z,86.70
2018-07-05T12:32:42.156Z,89.10
2018-07-05T12:35:27.479Z,90.40
2018-07-05T12:40:52.037Z,91.70
2018-07-05T12:46:17.012Z,87.50
2018-07-05T12:49:02.381Z,90.00
2018-07-05T12:51:47.714Z,90.40
2018-07-05T12:57:12.575Z,91.00
2018-07-05T12:59:57.762Z,91.10
2018-07-05T13:02:43.132Z,92.00
2018-07-05T13:05:28.635Z,91.90
2018-07-05T13:08:13.996Z,90.10
2018-07-05T13:10:59.491Z,92.00
2018-07-05T13:13:44.690Z,90.30
2018-07-05T13:19:09.484Z,89.70
2018-07-05T13:24:34.170Z,90.40
2018-07-05T13:27:19.450Z,85.40
2018-07-05T13:30:04.717Z,88.20
2018-07-05T13:32:49.888Z,87.50
2018-07-05T13:35:35.048Z,90.70
2018-07-05T13:38:20.363Z,86.30
2018-07-05T13:41:05.385Z,87.60
2018-07-05T13:43:50.574Z,90.00
2018-07-05T13:46:35.866Z,90.60
2018-07-05T13:49:21.164Z,92.00
2018-07-05T13:52:07.253Z,93.40
2018-07-05T13:57:32.141Z,94.30
2018-07-05T14:00:17.490Z,95.80
2018-07-05T14:03:02.794Z,98.00
2018-07-05T14:05:47.861Z,98.80
2018-07-05T14:08:33.173Z,99.10
2018-07-05T14:11:18.318Z,99.10
2018-07-05T14:14:03.809Z,99.40
2018-07-05T14:16:49.105Z,99.50
2018-07-05T14:19:34.355Z,99.40
2018-07-05T14:22:19.455Z,99.60
2018-07-05T14:25:04.877Z,99.60
2018-07-05T14:27:50.179Z,99.90
2018-07-05T14:30:35.345Z,98.40
2018-07-05T14:33:20.948Z,98.30
2018-07-05T14:36:06.298Z,99.60
2018-07-05T14:38:51.488Z,99.90
2018-07-05T14:41:36.786Z,99.90
2018-07-05T14:44:22.062Z,99.90
2018-07-05T14:47:07.197Z,98.40
2018-07-05T14:49:52.436Z,99.60
2018-07-05T14:52:37.579Z,99.90
2018-07-05T14:55:22.845Z,99.90
2018-07-05T14:58:08.149Z,99.90
2018-07-05T15:00:53.647Z,99.90
2018-07-05T15:08:58.018Z,99.90
2018-07-05T15:11:43.331Z,99.90
2018-07-05T15:14:28.462Z,99.30
2018-07-05T15:17:13.658Z,95.70
2018-07-05T15:19:58.961Z,98.30
2018-07-05T15:22:44.302Z,97.40
2018-07-05T15:25:29.678Z,98.30
2018-07-05T15:28:15.042Z,98.90
2018-07-05T15:31:00.236Z,97.40
2018-07-05T15:33:45.706Z,97.20
2018-07-05T15:36:30.998Z,99.10
2018-07-05T15:39:16.325Z,99.90
2018-07-05T15:42:01.770Z,99.70
2018-07-05T15:44:47.085Z,99.90
2018-07-05T15:47:32.323Z,99.40
2018-07-05T15:50:18.206Z,97.10
2018-07-05T15:53:03.555Z,98.30
2018-07-05T15:55:48.799Z,98.40
2018-07-05T15:58:34.276Z,99.20
2018-07-05T16:01:19.617Z,97.80
2018-07-05T16:06:44.415Z,99.00
2018-07-05T16:09:29.589Z,99.00
2018-07-05T16:12:14.895Z,97.70
2018-07-05T16:15:00.087Z,97.00
2018-07-05T16:17:45.653Z,95.70
2018-07-05T16:20:30.981Z,95.80
2018-07-05T16:23:16.213Z,96.20
2018-07-05T16:26:01.543Z,97.30
2018-07-05T16:28:46.609Z,95.70
2018-07-05T16:31:31.885Z,96.40
2018-07-05T16:34:17.316Z,95.90
2018-07-05T16:37:02.878Z,95.40
2018-07-05T16:39:48.152Z,96.70
2018-07-05T16:42:33.656Z,97.80
2018-07-05T16:45:19.134Z,97.50
2018-07-05T16:48:04.373Z,96.70
2018-07-05T16:50:49.694Z,97.00
2018-07-05T16:53:35.033Z,96.60
2018-07-05T16:56:20.245Z,97.70
2018-07-05T17:01:45.120Z,96.60
2018-07-05T17:04:31.171Z,95.30
2018-07-05T17:09:56.123Z,98.50
2018-07-05T17:12:41.531Z,98.60
2018-07-05T17:15:26.849Z,98.60
2018-07-05T17:18:12.239Z,98.80
2018-07-05T17:20:57.615Z,98.90
2018-07-05T17:23:43.067Z,97.70
2018-07-05T17:29:07.707Z,97.10
2018-07-05T17:31:53.074Z,98.50
2018-07-05T17:34:38.419Z,98.50
2018-07-05T17:37:23.703Z,98.80
2018-07-05T17:40:09.007Z,99.40
2018-07-05T17:42:54.408Z,98.60
2018-07-05T17:45:39.649Z,98.50
2018-07-05T17:48:24.873Z,94.30
2018-07-05T17:51:10.292Z,96.20
2018-07-05T17:53:55.641Z,97.10
2018-07-05T17:56:41.042Z,96.70
2018-07-05T17:59:26.271Z,96.90
2018-07-05T18:02:11.669Z,95.90
2018-07-05T18:07:36.730Z,96.50
2018-07-05T18:10:22.195Z,97.00
2018-07-05T18:13:07.465Z,96.40
2018-07-05T18:15:52.877Z,96.10
2018-07-05T18:18:38.434Z,95.10
2018-07-05T18:21:23.786Z,95.80
2018-07-05T18:24:08.958Z,95.80
2018-07-05T18:26:54.207Z,94.10
2018-07-05T18:29:39.625Z,95.10
2018-07-05T18:32:25.005Z,96.40
2018-07-05T18:35:10.390Z,96.80
2018-07-05T18:37:55.696Z,97.60
2018-07-05T18:40:40.906Z,96.70
2018-07-05T18:46:05.830Z,96.80
2018-07-05T18:48:51.070Z,96.70
2018-07-05T18:51:36.268Z,96.60
2018-07-05T18:54:21.611Z,96.70
2018-07-05T18:57:06.930Z,96.80
2018-07-05T18:59:52.341Z,96.50
2018-07-05T19:02:37.536Z,96.60
2018-07-05T19:05:22.849Z,96.00
2018-07-05T19:08:08.346Z,95.90
2018-07-05T19:10:53.976Z,95.40
2018-07-05T19:13:39.260Z,95.70
2018-07-05T19:19:04.245Z,96.80
2018-07-05T19:21:49.706Z,96.20
2018-07-05T19:24:35.015Z,96.00
2018-07-05T19:27:20.161Z,96.20
2018-07-05T19:30:05.501Z,96.00
2018-07-05T19:32:50.950Z,94.50
2018-07-05T19:35:36.280Z,95.50
2018-07-05T19:38:21.491Z,95.60
2018-07-05T19:41:06.816Z,96.10
2018-07-05T19:43:52.041Z,96.70
2018-07-05T19:46:37.346Z,97.20
2018-07-05T19:49:22.689Z,96.80
2018-07-05T19:54:48.585Z,96.20
2018-07-05T19:57:33.918Z,96.30
2018-07-05T20:00:19.243Z,96.40
2018-07-05T20:03:04.547Z,96.00
2018-07-05T20:08:29.188Z,96.50
2018-07-05T20:11:15.254Z,96.60
2018-07-05T20:14:00.645Z,96.70
2018-07-05T20:16:45.838Z,96.10
2018-07-05T20:19:31.294Z,95.70
2018-07-05T20:22:19.831Z,94.90
2018-07-05T20:25:05.003Z,94.60
2018-07-05T20:30:30.192Z,94.70
2018-07-05T20:33:15.590Z,95.00
2018-07-05T20:36:00.679Z,95.30
2018-07-05T20:38:45.945Z,95.40
2018-07-05T20:41:31.373Z,95.60
2018-07-05T20:44:16.524Z,95.40
2018-07-05T20:47:01.787Z,96.20
2018-07-05T20:49:47.204Z,96.40
2018-07-05T20:52:33.189Z,96.20
2018-07-05T20:55:18.620Z,96.70
2018-07-05T20:58:03.797Z,97.60
2018-07-05T21:00:49.158Z,98.00
2018-07-05T21:03:34.512Z,97.30
2018-07-05T21:06:19.923Z,97.10
2018-07-05T21:09:05.633Z,96.80
2018-07-05T21:11:51.615Z,96.20
2018-07-05T21:14:36.892Z,96.40
2018-07-05T21:17:22.318Z,96.50
2018-07-05T21:25:26.822Z,96.70
2018-07-05T21:28:12.123Z,96.40
2018-07-05T21:30:57.463Z,96.20
2018-07-05T21:33:43.669Z,96.00
2018-07-05T21:36:30.162Z,95.40
2018-07-05T21:39:15.478Z,96.10
2018-07-05T21:42:00.785Z,96.80
2018-07-05T21:44:46.067Z,96.80
2018-07-05T21:47:31.438Z,97.00
2018-07-05T21:50:16.672Z,96.80
2018-07-05T21:53:01.928Z,95.80
2018-07-05T21:55:47.187Z,96.40
2018-07-05T21:58:32.725Z,96.90
2018-07-05T22:01:18.301Z,97.30
2018-07-05T22:06:43.112Z,97.20
2018-07-05T22:09:28.706Z,96.00
2018-07-05T22:12:14.197Z,96.30
2018-07-05T22:14:59.593Z,97.30
2018-07-05T22:17:50.732Z,97.10
2018-07-05T22:20:41.698Z,96.80
2018-07-05T22:23:32.826Z,96.90
2018-07-05T22:26:23.744Z,96.80
2018-07-05T22:29:14.878Z,96.40
2018-07-05T22:34:40.741Z,96.50
2018-07-05T22:37:26.092Z,96.40
2018-07-05T22:42:50.895Z,96.80
2018-07-05T22:45:36.394Z,96.50
2018-07-05T22:51:01.025Z,95.80
2018-07-05T22:53:46.450Z,95.70
2018-07-05T22:56:31.689Z,95.20
2018-07-05T22:59:16.976Z,95.20
2018-07-05T23:02:02.472Z,95.20
2018-07-05T23:04:47.854Z,94.60
2018-07-05T23:07:33.346Z,95.40
2018-07-05T23:10:18.689Z,95.50
2018-07-05T23:13:04.015Z,96.30
2018-07-05T23:15:49.268Z,96.40
2018-07-05T23:18:34.641Z,95.90
2018-07-05T23:21:19.794Z,95.70
2018-07-05T23:24:05.107Z,96.30
2018-07-05T23:26:50.455Z,96.50
2018-07-05T23:29:35.849Z,96.40
2018-07-05T23:35:00.827Z,96.20
2018-07-05T23:37:46.204Z,96.30
2018-07-05T23:40:31.467Z,96.40
2018-07-05T23:43:16.824Z,96.60
2018-07-05T23:46:02.538Z,96.40
2018-07-05T23:48:47.913Z,96.40
2018-07-05T23:51:33.223Z,95.90
